createdAt,value
2018-12-21T00:03:04.748Z,6.6
2018-12-21T00:08:04.817Z,6.5
2018-12-21T00:12:28.064Z,6.6
2018-12-21T00:17:34.392Z,6.6
2018-12-21T00:22:28.553Z,6.7
2018-12-21T00:27:28.021Z,6.7
2018-12-21T00:32:27.220Z,6.7
2018-12-21T00:37:27.490Z,6.7
2018-12-21T00:42:28.071Z,6.7
2018-12-21T00:47:28.556Z,6.7
2018-12-21T00:52:28.139Z,6.8
2018-12-21T00:57:27.472Z,6.8
2018-12-21T01:02:28.137Z,6.8
2018-12-21T01:07:28.107Z,6.8
2018-12-21T01:12:27.690Z,6.8
2018-12-21T01:17:28.747Z,6.8
2018-12-21T01:22:27.597Z,6.7
2018-12-21T01:27:28.643Z,6.8
2018-12-21T01:32:27.395Z,6.8
2018-12-21T01:37:28.247Z,6.8
2018-12-21T01:42:28.529Z,6.8
2018-12-21T01:47:27.405Z,6.8
2018-12-21T01:52:28.029Z,6.9
2018-12-21T01:57:28.185Z,6.9
2018-12-21T02:02:28.015Z,6.9
2018-12-21T02:07:28.155Z,7.0
2018-12-21T02:12:27.567Z,7.0
2018-12-21T02:17:27.615Z,7.1
2018-12-21T02:22:27.577Z,7.0
2018-12-21T02:27:28.075Z,7.2
2018-12-21T02:32:28.139Z,7.2
2018-12-21T02:37:27.946Z,7.2
2018-12-21T02:42:28.077Z,7.1
2018-12-21T02:47:27.571Z,7.2
2018-12-21T02:52:28.292Z,7.1
2018-12-21T02:57:27.556Z,7.1
2018-12-21T03:02:27.929Z,7.1
2018-12-21T03:07:28.255Z,7.1
2018-12-21T03:12:27.460Z,7.1
2018-12-21T03:17:27.689Z,7.1
2018-12-21T03:22:27.805Z,7.1
2018-12-21T03:27:27.926Z,7.1
2018-12-21T03:32:27.538Z,7.1
2018-12-21T03:37:27.436Z,7.1
2018-12-21T03:42:27.475Z,7.2
2018-12-21T03:47:28.509Z,7.2
2018-12-21T03:52:27.807Z,7.2
2018-12-21T03:57:28.370Z,7.2
2018-12-21T04:02:28.092Z,7.2
2018-12-21T04:07:29.151Z,7.2
2018-12-21T04:12:28.369Z,7.3
2018-12-21T04:17:28.513Z,7.3
2018-12-21T04:22:33.871Z,7.3
2018-12-21T04:27:27.819Z,7.4
2018-12-21T04:32:27.177Z,7.4
2018-12-21T04:37:29.344Z,7.4
2018-12-21T04:42:27.988Z,7.4
2018-12-21T04:47:29.559Z,7.5
2018-12-21T04:52:27.842Z,7.6
2018-12-21T04:57:27.650Z,7.6
2018-12-21T05:02:27.514Z,7.7
2018-12-21T05:07:28.463Z,7.7
2018-12-21T05:12:28.220Z,7.8
2018-12-21T05:17:27.825Z,8.0
2018-12-21T05:22:28.245Z,7.9
2018-12-21T05:27:28.551Z,8.2
2018-12-21T05:32:27.978Z,8.1
2018-12-21T05:37:27.876Z,8.3
2018-12-21T05:42:27.240Z,8.4
2018-12-21T05:47:27.935Z,8.5
2018-12-21T05:52:28.272Z,8.6
2018-12-21T05:57:27.491Z,8.7
2018-12-21T06:02:28.461Z,8.5
2018-12-21T06:07:27.770Z,8.5
2018-12-21T06:12:28.306Z,8.4
2018-12-21T06:17:28.307Z,8.3
2018-12-21T06:22:27.278Z,8.1
2018-12-21T06:27:28.390Z,7.9
2018-12-21T06:32:28.517Z,7.7
2018-12-21T06:37:28.745Z,7.5
2018-12-21T06:42:28.941Z,7.5
2018-12-21T06:47:28.650Z,7.4
2018-12-21T06:52:28.067Z,7.4
2018-12-21T06:57:28.546Z,7.4
2018-12-21T07:02:28.294Z,7.4
2018-12-21T07:07:28.239Z,7.3
2018-12-21T07:12:28.367Z,7.3
2018-12-21T07:17:28.347Z,7.3
2018-12-21T07:22:27.952Z,7.2
2018-12-21T07:27:28.188Z,7.1
2018-12-21T07:32:28.775Z,7.1
2018-12-21T07:37:28.657Z,7.0
2018-12-21T07:42:28.622Z,7.0
2018-12-21T07:47:29.186Z,7.0
2018-12-21T07:52:28.420Z,6.9
2018-12-21T07:57:28.536Z,6.9
2018-12-21T08:02:28.696Z,6.9
2018-12-21T08:07:28.289Z,6.9
2018-12-21T08:12:27.858Z,6.9
2018-12-21T08:17:28.697Z,6.9
2018-12-21T08:22:28.760Z,7.0
2018-12-21T08:27:28.903Z,7.0
2018-12-21T08:32:27.954Z,6.9
2018-12-21T08:37:28.685Z,7.0
2018-12-21T08:42:28.444Z,6.9
2018-12-21T08:47:28.899Z,7.0
2018-12-21T08:52:28.391Z,7.0
2018-12-21T08:57:28.410Z,7.1
2018-12-21T09:02:28.691Z,7.1
2018-12-21T09:07:28.457Z,7.2
2018-12-21T09:12:28.050Z,7.5
2018-12-21T09:17:28.696Z,7.6
2018-12-21T09:22:28.427Z,7.7
2018-12-21T09:27:28.884Z,7.7
2018-12-21T09:32:29.097Z,7.8
2018-12-21T09:37:28.258Z,7.8
2018-12-21T09:42:27.746Z,7.9
2018-12-21T09:47:28.609Z,8.0
2018-12-21T09:52:27.907Z,8.0
2018-12-21T09:57:28.884Z,8.1
2018-12-21T10:02:35.511Z,8.2
2018-12-21T10:07:28.959Z,8.2
2018-12-21T10:12:28.447Z,8.2
2018-12-21T10:17:29.051Z,8.2
2018-12-21T10:22:28.367Z,8.4
2018-12-21T10:27:28.979Z,8.3
2018-12-21T10:32:28.695Z,8.5
2018-12-21T10:37:29.109Z,8.8
2018-12-21T10:42:28.427Z,9.3
2018-12-21T10:47:28.721Z,9.3
2018-12-21T10:52:28.613Z,9.3
2018-12-21T10:57:28.826Z,9.4
2018-12-21T11:02:29.208Z,9.5
2018-12-21T11:07:28.629Z,9.5
2018-12-21T11:12:28.359Z,9.5
2018-12-21T11:17:28.395Z,9.6
2018-12-21T11:22:28.437Z,9.6
2018-12-21T11:27:29.915Z,9.7
2018-12-21T11:32:28.548Z,9.7
2018-12-21T11:37:28.814Z,9.8
2018-12-21T11:42:28.636Z,9.7
2018-12-21T11:47:27.846Z,9.9
2018-12-21T11:52:28.441Z,10.0
2018-12-21T11:57:28.039Z,10.0
2018-12-21T12:02:28.591Z,10.0
2018-12-21T12:07:29.314Z,10.1
2018-12-21T12:12:27.978Z,10.0
2018-12-21T12:17:29.012Z,10.1
2018-12-21T12:22:28.670Z,10.1
2018-12-21T12:27:29.277Z,10.2
2018-12-21T12:32:29.545Z,10.2
2018-12-21T12:37:29.042Z,10.1
2018-12-21T12:42:29.097Z,10.2
2018-12-21T12:47:28.283Z,10.2
2018-12-21T12:52:28.448Z,10.2
2018-12-21T12:57:29.852Z,10.2
2018-12-21T13:02:28.413Z,10.3
2018-12-21T13:07:28.253Z,10.3
2018-12-21T13:12:28.864Z,10.4
2018-12-21T13:17:28.329Z,10.3
2018-12-21T13:22:28.839Z,10.3
2018-12-21T13:27:28.571Z,10.3
2018-12-21T13:32:28.752Z,10.3
2018-12-21T13:37:28.854Z,10.3
2018-12-21T13:42:29.555Z,10.3
2018-12-21T13:47:28.997Z,10.4
2018-12-21T13:52:28.712Z,10.3
2018-12-21T13:57:29.030Z,10.3
2018-12-21T14:02:28.515Z,10.3
2018-12-21T14:07:28.099Z,10.2
2018-12-21T14:12:28.771Z,10.3
2018-12-21T14:17:29.177Z,10.3
2018-12-21T14:22:28.418Z,10.4
2018-12-21T14:27:27.871Z,10.5
2018-12-21T14:32:30.024Z,10.5
2018-12-21T14:37:28.010Z,10.6
2018-12-21T14:42:28.180Z,10.6
2018-12-21T14:47:28.600Z,10.6
2018-12-21T14:52:28.677Z,10.6
2018-12-21T14:57:27.781Z,10.6
2018-12-21T15:02:28.571Z,10.7
2018-12-21T15:07:29.952Z,10.7
2018-12-21T15:12:28.611Z,10.6
2018-12-21T15:17:28.151Z,10.7
2018-12-21T15:22:27.860Z,10.7
2018-12-21T15:27:27.997Z,10.7
2018-12-21T15:32:27.983Z,10.7
2018-12-21T15:37:28.488Z,10.8
2018-12-21T15:42:28.523Z,10.8
2018-12-21T15:47:28.858Z,10.9
2018-12-21T15:52:28.437Z,10.9
2018-12-21T15:57:28.170Z,11.0
2018-12-21T16:02:28.278Z,11.1
2018-12-21T16:07:28.417Z,11.1
2018-12-21T16:12:28.107Z,11.1
2018-12-21T16:17:27.867Z,11.1
2018-12-21T16:22:28.122Z,11.2
2018-12-21T16:27:27.774Z,11.2
2018-12-21T16:32:29.932Z,11.3
2018-12-21T16:37:27.814Z,11.3
2018-12-21T16:42:28.088Z,11.4
2018-12-21T16:47:28.551Z,11.4
2018-12-21T16:52:27.702Z,11.4
2018-12-21T16:57:27.628Z,11.5
2018-12-21T17:02:27.953Z,11.5
2018-12-21T17:07:28.289Z,11.5
2018-12-21T17:12:27.879Z,11.6
2018-12-21T17:17:28.418Z,11.6
2018-12-21T17:22:27.647Z,11.6
2018-12-21T17:27:28.146Z,11.6
2018-12-21T17:32:28.240Z,11.6
2018-12-21T17:37:28.530Z,11.7
2018-12-21T17:42:28.356Z,11.7
2018-12-21T17:47:27.520Z,11.7
2018-12-21T17:52:27.788Z,11.7
2018-12-21T17:57:28.698Z,11.7
2018-12-21T18:02:27.238Z,11.7
2018-12-21T18:07:27.637Z,11.8
2018-12-21T18:12:28.820Z,11.8
2018-12-21T18:17:28.865Z,11.8
2018-12-21T18:22:27.501Z,11.8
2018-12-21T18:27:28.434Z,11.8
2018-12-21T18:32:27.829Z,11.9
2018-12-21T18:37:28.475Z,11.8
2018-12-21T18:42:28.087Z,11.9
2018-12-21T18:47:28.477Z,11.9
2018-12-21T18:52:29.019Z,11.9
2018-12-21T18:57:27.222Z,11.8
2018-12-21T19:02:27.956Z,11.8
2018-12-21T19:07:27.960Z,11.7
2018-12-21T19:12:28.557Z,11.7
2018-12-21T19:17:28.198Z,11.7
2018-12-21T19:22:27.700Z,11.6
2018-12-21T19:27:28.190Z,11.5
2018-12-21T19:32:28.503Z,11.4
2018-12-21T19:37:27.570Z,11.3
2018-12-21T19:42:27.480Z,11.3
2018-12-21T19:47:28.012Z,11.3
2018-12-21T19:52:27.161Z,11.3
2018-12-21T19:57:28.297Z,11.4
2018-12-21T20:02:27.805Z,11.4
2018-12-21T20:07:27.989Z,11.4
2018-12-21T20:12:27.779Z,11.5
2018-12-21T20:17:27.712Z,11.5
2018-12-21T20:22:28.136Z,11.5
2018-12-21T20:27:27.671Z,11.5
2018-12-21T20:32:27.242Z,11.5
2018-12-21T20:37:27.941Z,11.5
2018-12-21T20:42:28.988Z,11.4
2018-12-21T20:47:28.096Z,11.4
2018-12-21T20:52:27.549Z,11.3
2018-12-21T20:57:27.867Z,11.3
2018-12-21T21:02:28.072Z,11.1
2018-12-21T21:07:29.295Z,11.0
2018-12-21T21:12:27.536Z,11.0
2018-12-21T21:17:28.955Z,11.0
2018-12-21T21:22:27.725Z,10.9
2018-12-21T21:27:30.434Z,10.9
2018-12-21T21:32:28.956Z,10.8
2018-12-21T21:37:27.935Z,10.9
2018-12-21T21:42:28.409Z,10.9
2018-12-21T21:47:28.480Z,10.8
2018-12-21T21:52:28.763Z,10.8
2018-12-21T21:57:27.966Z,10.9
2018-12-21T22:02:28.245Z,10.8
2018-12-21T22:07:28.855Z,10.9
2018-12-21T22:12:27.541Z,10.8
2018-12-21T22:17:28.383Z,10.8
2018-12-21T22:22:27.582Z,10.8
2018-12-21T22:27:27.698Z,10.9
2018-12-21T22:32:27.113Z,10.9
2018-12-21T22:37:27.675Z,10.9
2018-12-21T22:42:28.411Z,10.9
2018-12-21T22:47:28.675Z,11.0
2018-12-21T22:52:27.700Z,11.0
2018-12-21T22:57:27.585Z,11.0
2018-12-21T23:02:28.211Z,10.9
2018-12-21T23:07:27.203Z,10.9
2018-12-21T23:12:28.597Z,10.9
2018-12-21T23:22:44.793Z,10.9
2018-12-21T23:27:44.491Z,10.9
2018-12-21T23:32:44.536Z,10.9
2018-12-21T23:37:44.660Z,10.9
2018-12-21T23:42:44.421Z,10.9
2018-12-21T23:47:44.478Z,11.0
2018-12-21T23:52:43.889Z,11.0
2018-12-21T23:57:44.526Z,11.1
